Apple Valley, North Dakota
Current Conditions -  °F | °C
As of 2:52 PM on Monday 24 Nov 2014 (Local Time) from KBIS Reporting Station
Clear Clear  
Wind Chill: 14°   Ceiling: Unl
Heat Index: 27°   Visibility: 10mi
Dew Point:   Wind: 17mph
Humidity: 31%   Direction: 320°NW
Pressure: 29.97"   Gusts: NA
Location:  46.8954°N, 100.519°W
Report Text: KBIS 242052Z 32015KT 10SM CLR M03/M18 A2997 RMK AO2 SLP176 T10281178 53013
Loading
Personal Weather Stations






























Interactive Weather Map New forecast layout! Learn more

10-Day Weather Forecast

Advertisements
Track Severe Weather on mobile